Time;durP1;ratioP1;P1;durP2;ratioP2;P2;SDS_P1;SDS_P2;PMS_P1;PMS_P2;Temp;Humidity;BMP_temperature;BMP_pressure;BME280_temperature;BME280_humidity;BME280_pressure;Samples;Min_cycle;Max_cycle;Signal;HPM_P1;HPM_P2
2023/08/09 00:02:18;;;;;;;;;;;;;;;14.50;100.00;101228.81;5007695;28;20759;-74
2023/08/09 00:04:43;;;;;;;;;;;;;;;14.48;100.00;101234.34;5008504;28;19948;-74
2023/08/09 00:07:08;;;;;;;;;;;;;;;14.49;100.00;101219.00;5008809;28;20313;-74
2023/08/09 00:09:34;;;;;;;;;;;;;;;14.49;100.00;101227.09;4991702;28;20331;-74
2023/08/09 00:11:59;;;;;;;;;;;;;;;14.48;100.00;101231.66;5008830;28;19951;-74
2023/08/09 00:14:24;;;;;;;;;;;;;;;14.47;100.00;101218.28;5024556;28;19921;-74
2023/08/09 00:16:49;;;;;;;;;;;;;;;14.46;100.00;101216.56;5012470;28;19921;-74
2023/08/09 00:19:14;;;;;;;;;;;;;;;14.51;100.00;101219.72;5011536;28;20253;-74
2023/08/09 00:21:40;;;;;;;;;;;;;;;14.43;100.00;101222.25;5011543;28;20454;-74
2023/08/09 00:24:05;;;;;;;;;;;;;;;14.26;100.00;101211.06;5023867;28;20454;-74
2023/08/09 00:26:30;;;;;;;;;;;;;;;14.14;100.00;101217.56;5008663;28;20382;-74
2023/08/09 00:28:56;;;;;;;;;;;;;;;14.15;100.00;101217.41;5007204;28;20302;-74
2023/08/09 00:31:21;;;;;;;;;;;;;;;14.09;100.00;101215.25;5022661;28;19921;-74
2023/08/09 00:33:46;;;;;;;;;;;;;;;14.16;100.00;101218.28;5005664;28;20500;-74
2023/08/09 00:36:11;;;;;;;;;;;;;;;14.16;100.00;101234.50;5008476;28;20031;-74
2023/08/09 00:38:36;;;;;;;;;;;;;;;14.16;100.00;101240.72;5007769;28;19920;-74
2023/08/09 00:41:02;;;;;;;;;;;;;;;14.20;100.00;101235.91;4995901;28;20193;-74
2023/08/09 00:43:27;;;;;;;;;;;;;;;14.24;100.00;101234.66;5004550;28;19955;-74
2023/08/09 00:45:52;;;;;;;;;;;;;;;14.27;100.00;101237.09;5009044;28;20043;-74
2023/08/09 00:48:18;;;;;;;;;;;;;;;14.25;100.00;101236.38;4990801;28;19940;-74
2023/08/09 00:50:43;;;;;;;;;;;;;;;14.24;100.00;101240.06;5008769;28;20035;-74
2023/08/09 00:53:09;;;;;;;;;;;;;;;14.27;100.00;101241.66;5006530;28;19928;-74
2023/08/09 00:55:34;;;;;;;;;;;;;;;14.34;100.00;101245.50;5025131;28;20355;-74
2023/08/09 00:57:59;;;;;;;;;;;;;;;14.36;100.00;101251.63;5027268;28;19953;-74
2023/08/09 01:00:24;;;;;;;;;;;;;;;14.36;100.00;101255.22;5012987;28;20003;-74
2023/08/09 01:02:50;;;;;;;;;;;;;;;14.37;100.00;101248.81;5024001;28;20286;-74
2023/08/09 01:05:15;;;;;;;;;;;;;;;14.34;100.00;101249.06;5018493;28;20023;-74
2023/08/09 01:07:46;;;;;;;;;;;;;;;14.37;100.00;101253.34;5001063;28;19958;-74
2023/08/09 01:10:14;;;;;;;;;;;;;;;14.34;100.00;101248.22;5003128;28;19937;-74
2023/08/09 01:12:41;;;;;;;;;;;;;;;14.29;100.00;101247.78;5001694;28;19966;-74
2023/08/09 01:15:07;;;;;;;;;;;;;;;14.30;100.00;101238.69;4984725;28;19976;-74
2023/08/09 01:17:32;;;;;;;;;;;;;;;14.21;100.00;101248.41;5003062;28;20027;-74
2023/08/09 01:19:57;;;;;;;;;;;;;;;14.17;100.00;101247.84;5019644;28;19931;-74
2023/08/09 01:22:26;;;;;;;;;;;;;;;14.15;100.00;101247.13;5020682;28;21304;-74
2023/08/09 01:24:51;;;;;;;;;;;;;;;14.09;100.00;101250.34;5001941;28;19959;-74
2023/08/09 01:27:16;;;;;;;;;;;;;;;14.00;100.00;101237.66;5001591;28;19925;-74
2023/08/09 01:29:42;;;;;;;;;;;;;;;13.78;100.00;101240.34;5024878;28;19931;-74
2023/08/09 01:32:07;;;;;;;;;;;;;;;13.71;100.00;101247.25;5007427;28;19937;-74
2023/08/09 01:34:32;;;;;;;;;;;;;;;13.66;100.00;101249.47;5007447;28;19936;-74
2023/08/09 01:36:58;;;;;;;;;;;;;;;13.63;100.00;101249.75;5003037;28;20443;-74
2023/08/09 01:39:25;;;;;;;;;;;;;;;13.56;100.00;101257.50;5003739;28;19999;-74
2023/08/09 01:41:50;;;;;;;;;;;;;;;13.49;100.00;101253.63;5018308;28;20279;-74
2023/08/09 01:44:16;;;;;;;;;;;;;;;13.48;100.00;101255.44;5003884;28;19967;-74
2023/08/09 01:46:41;;;;;;;;;;;;;;;13.49;100.00;101257.16;5003896;28;20055;-74
2023/08/09 01:49:08;;;;;;;;;;;;;;;13.39;100.00;101256.16;5021256;28;19925;-74
2023/08/09 01:51:33;;;;;;;;;;;;;;;13.29;100.00;101247.16;5002029;28;19940;-74
2023/08/09 01:53:58;;;;;;;;;;;;;;;13.17;100.00;101249.03;4999866;28;20366;-73
2023/08/09 01:56:23;;;;;;;;;;;;;;;13.09;100.00;101260.44;5020191;28;20453;-73
2023/08/09 01:58:49;;;;;;;;;;;;;;;13.05;100.00;101272.44;5021758;28;19927;-74
2023/08/09 02:01:14;;;;;;;;;;;;;;;12.99;100.00;101270.25;5002575;28;19925;-74
2023/08/09 02:03:39;;;;;;;;;;;;;;;12.95;100.00;101266.09;5004651;28;19925;-74
2023/08/09 02:06:04;;;;;;;;;;;;;;;12.90;100.00;101272.69;5020442;28;19920;-74
2023/08/09 02:08:29;;;;;;;;;;;;;;;12.97;100.00;101277.59;5001947;28;20387;-74
2023/08/09 02:10:55;;;;;;;;;;;;;;;12.96;100.00;101281.28;5020055;28;20394;-74
2023/08/09 02:13:20;;;;;;;;;;;;;;;12.92;100.00;101277.09;5003972;28;19940;-74
2023/08/09 02:15:45;;;;;;;;;;;;;;;12.86;100.00;101273.09;5022239;28;19964;-73
2023/08/09 02:18:10;;;;;;;;;;;;;;;12.73;100.00;101268.66;5009963;28;20020;-74
2023/08/09 02:20:35;;;;;;;;;;;;;;;12.69;100.00;101282.50;5023295;28;20252;-74
2023/08/09 02:23:02;;;;;;;;;;;;;;;12.66;100.00;101280.06;5020636;28;19936;-74
2023/08/09 02:25:28;;;;;;;;;;;;;;;12.59;100.00;101285.09;5006406;28;19952;-74
2023/08/09 02:27:53;;;;;;;;;;;;;;;12.51;100.00;101284.81;5005377;28;20372;-74
2023/08/09 02:30:18;;;;;;;;;;;;;;;12.47;100.00;101284.22;5006434;28;19967;-74
2023/08/09 02:32:43;;;;;;;;;;;;;;;12.45;100.00;101286.19;5022799;28;20362;-74
2023/08/09 02:35:10;;;;;;;;;;;;;;;12.38;100.00;101282.25;5008250;28;20287;-74
2023/08/09 02:37:35;;;;;;;;;;;;;;;12.30;100.00;101289.13;5026223;28;19921;-74
2023/08/09 02:40:01;;;;;;;;;;;;;;;12.27;100.00;101292.03;5006361;28;19925;-73
2023/08/09 02:42:26;;;;;;;;;;;;;;;12.27;100.00;101296.56;5023165;28;20513;-74
2023/08/09 02:44:51;;;;;;;;;;;;;;;12.25;100.00;101302.06;5032953;28;19921;-74
2023/08/09 02:47:16;;;;;;;;;;;;;;;12.21;100.00;101303.28;4994523;28;19996;-75
2023/08/09 02:49:43;;;;;;;;;;;;;;;12.20;100.00;101311.47;5027427;28;20038;-74
2023/08/09 02:52:08;;;;;;;;;;;;;;;12.21;100.00;101310.47;5010529;28;19932;-74
2023/08/09 02:54:34;;;;;;;;;;;;;;;12.11;100.00;101308.53;5023824;28;19925;-74
2023/08/09 02:56:59;;;;;;;;;;;;;;;12.02;100.00;101306.53;5008970;28;19917;-74
2023/08/09 02:59:24;;;;;;;;;;;;;;;11.99;100.00;101314.81;5007189;28;19922;-73
2023/08/09 03:01:49;;;;;;;;;;;;;;;11.98;100.00;101321.16;5008405;28;21963;-74
2023/08/09 03:04:15;;;;;;;;;;;;;;;11.76;100.00;101295.88;5024087;28;19921;-74
2023/08/09 03:06:40;;;;;;;;;;;;;;;11.95;100.00;101322.25;5010775;28;19972;-74
2023/08/09 03:09:06;;;;;;;;;;;;;;;11.98;100.00;101329.22;5024990;28;19917;-74
2023/08/09 03:11:31;;;;;;;;;;;;;;;12.02;100.00;101321.81;5024684;28;20063;-74
2023/08/09 03:13:56;;;;;;;;;;;;;;;12.11;100.00;101332.75;5024077;28;19921;-74
2023/08/09 03:16:22;;;;;;;;;;;;;;;12.14;100.00;101334.34;5023956;28;20565;-74
2023/08/09 03:18:47;;;;;;;;;;;;;;;12.20;100.00;101324.91;5007170;28;20371;-74
2023/08/09 03:21:13;;;;;;;;;;;;;;;12.21;100.00;101323.94;5027034;28;19975;-74
2023/08/09 03:23:38;;;;;;;;;;;;;;;12.24;100.00;101321.00;5007317;28;19925;-73
2023/08/09 03:26:03;;;;;;;;;;;;;;;12.26;100.00;101322.63;5024994;28;19921;-73
2023/08/09 03:28:28;;;;;;;;;;;;;;;12.33;100.00;101324.81;5024710;28;20474;-74
2023/08/09 03:30:54;;;;;;;;;;;;;;;12.36;100.00;101338.94;5025352;28;20588;-74
2023/08/09 03:33:19;;;;;;;;;;;;;;;12.40;100.00;101345.78;5012194;28;19933;-74
2023/08/09 03:35:44;;;;;;;;;;;;;;;12.41;100.00;101342.13;4991013;28;20194;-74
2023/08/09 03:38:10;;;;;;;;;;;;;;;12.43;100.00;101353.63;5013759;28;20015;-74
2023/08/09 03:40:35;;;;;;;;;;;;;;;12.40;100.00;101345.78;5005558;28;20003;-74
2023/08/09 03:43:01;;;;;;;;;;;;;;;12.37;100.00;101353.22;5023377;28;20130;-74
2023/08/09 03:45:26;;;;;;;;;;;;;;;12.36;100.00;101348.81;5008812;28;19925;-74
2023/08/09 03:47:52;;;;;;;;;;;;;;;12.36;100.00;101364.97;5026466;28;20200;-74
2023/08/09 03:50:18;;;;;;;;;;;;;;;12.31;100.00;101370.72;5009819;28;20406;-73
2023/08/09 03:52:43;;;;;;;;;;;;;;;12.20;100.00;101362.59;5008383;28;19925;-74
2023/08/09 03:55:08;;;;;;;;;;;;;;;12.05;100.00;101359.28;5007958;28;19929;-73
2023/08/09 03:57:33;;;;;;;;;;;;;;;11.96;100.00;101358.97;5007936;28;19935;-74
2023/08/09 03:59:59;;;;;;;;;;;;;;;11.95;100.00;101369.81;5023429;28;19968;-74
2023/08/09 04:02:24;;;;;;;;;;;;;;;11.97;100.00;101373.25;4986641;28;19923;-74
2023/08/09 04:04:49;;;;;;;;;;;;;;;11.99;100.00;101371.34;5022517;28;20863;-74
2023/08/09 04:07:14;;;;;;;;;;;;;;;11.97;100.00;101371.44;5008792;28;20011;-74
2023/08/09 04:09:40;;;;;;;;;;;;;;;11.96;100.00;101379.59;5012182;28;19921;-74
2023/08/09 04:12:05;;;;;;;;;;;;;;;11.86;100.00;101371.38;5011589;28;19986;-73
2023/08/09 04:14:30;;;;;;;;;;;;;;;11.69;100.00;101364.56;5005197;28;19925;-73
2023/08/09 04:16:59;;;;;;;;;;;;;;;11.61;100.00;101367.81;4991255;28;19917;-74
2023/08/09 04:19:25;;;;;;;;;;;;;;;11.68;100.00;101373.59;5024178;28;19979;-73
2023/08/09 04:21:50;;;;;;;;;;;;;;;11.77;100.00;101377.47;5007017;28;19987;-74
2023/08/09 04:24:16;;;;;;;;;;;;;;;11.79;100.00;101379.06;4991322;28;20375;-74
2023/08/09 04:26:42;;;;;;;;;;;;;;;11.63;100.00;101376.63;5006211;28;20012;-74
2023/08/09 04:29:07;;;;;;;;;;;;;;;11.60;100.00;101374.16;5006458;28;19998;-73
2023/08/09 04:31:32;;;;;;;;;;;;;;;11.58;100.00;101386.88;5022189;28;20165;-73
2023/08/09 04:33:57;;;;;;;;;;;;;;;11.58;100.00;101394.94;5022195;28;19925;-74
2023/08/09 04:36:23;;;;;;;;;;;;;;;11.55;100.00;101390.66;5004799;28;19967;-74
2023/08/09 04:38:48;;;;;;;;;;;;;;;11.56;100.00;101396.88;5024492;28;21822;-73
2023/08/09 04:41:13;;;;;;;;;;;;;;;11.56;100.00;101394.19;4988449;28;19956;-73
2023/08/09 04:43:42;;;;;;;;;;;;;;;11.57;100.00;101395.06;5007746;28;19968;-74
2023/08/09 04:46:07;;;;;;;;;;;;;;;11.59;100.00;101398.50;4997765;28;20125;-74
2023/08/09 04:48:32;;;;;;;;;;;;;;;11.63;100.00;101402.69;5019786;28;19921;-74
2023/08/09 04:50:58;;;;;;;;;;;;;;;11.63;100.00;101402.69;5021641;28;19925;-73
2023/08/09 04:53:23;;;;;;;;;;;;;;;11.60;100.00;101406.44;5018410;28;19925;-74
2023/08/09 04:55:48;;;;;;;;;;;;;;;11.60;100.00;101401.06;5020668;28;19960;-74
2023/08/09 04:58:13;;;;;;;;;;;;;;;11.59;100.00;101403.88;5003106;28;20000;-73
2023/08/09 05:00:38;;;;;;;;;;;;;;;11.58;100.00;101402.16;5010731;28;19931;-73
2023/08/09 05:03:04;;;;;;;;;;;;;;;11.58;100.00;101397.63;5024841;28;19927;-74
2023/08/09 05:05:30;;;;;;;;;;;;;;;11.64;100.00;101407.09;5006335;28;20019;-74
2023/08/09 05:07:55;;;;;;;;;;;;;;;11.72;100.00;101419.97;5005451;28;20390;-73
2023/08/09 05:10:20;;;;;;;;;;;;;;;11.88;100.00;101419.72;5008634;28;19920;-74
2023/08/09 05:12:45;;;;;;;;;;;;;;;11.97;100.00;101416.31;5006613;28;19931;-73
2023/08/09 05:15:11;;;;;;;;;;;;;;;12.04;100.00;101417.59;5014368;28;19921;-74
2023/08/09 05:17:36;;;;;;;;;;;;;;;12.10;100.00;101432.44;5027076;28;19924;-74
2023/08/09 05:20:02;;;;;;;;;;;;;;;12.20;100.00;101440.66;5013655;28;20103;-74
2023/08/09 05:22:27;;;;;;;;;;;;;;;12.26;100.00;101435.72;5028192;28;20402;-74
2023/08/09 05:24:53;;;;;;;;;;;;;;;12.26;100.00;101434.84;5014770;28;19921;-74
2023/08/09 05:27:18;;;;;;;;;;;;;;;12.30;100.00;101431.81;5012086;28;19968;-73
2023/08/09 05:29:43;;;;;;;;;;;;;;;12.39;100.00;101426.69;5014723;28;20012;-74
2023/08/09 05:32:08;;;;;;;;;;;;;;;12.31;100.00;101405.72;5011676;28;19931;-74
2023/08/09 05:34:33;;;;;;;;;;;;;;;12.56;100.00;101441.56;5031368;28;19921;-74
2023/08/09 05:36:59;;;;;;;;;;;;;;;12.66;100.00;101444.38;5014759;28;20012;-74
2023/08/09 05:39:24;;;;;;;;;;;;;;;12.74;100.00;101450.91;5026623;28;19925;-74
2023/08/09 05:41:49;;;;;;;;;;;;;;;12.92;100.00;101449.59;5023502;28;19932;-73
2023/08/09 05:44:14;;;;;;;;;;;;;;;13.01;100.00;101451.56;5011505;28;19921;-74
2023/08/09 05:46:40;;;;;;;;;;;;;;;13.09;100.00;101450.97;5014304;28;20236;-74
2023/08/09 05:49:05;;;;;;;;;;;;;;;13.19;100.00;101447.41;4996323;28;19921;-74
2023/08/09 05:51:31;;;;;;;;;;;;;;;13.35;100.00;101449.75;5027454;28;19963;-74
2023/08/09 05:53:57;;;;;;;;;;;;;;;13.53;100.00;101461.91;5011888;28;19969;-74
2023/08/09 05:56:22;;;;;;;;;;;;;;;13.65;100.00;101459.09;5028819;28;20342;-73
2023/08/09 05:58:47;;;;;;;;;;;;;;;13.63;100.00;101469.16;5010815;28;20348;-74
2023/08/09 06:01:14;;;;;;;;;;;;;;;13.65;100.00;101467.19;5011018;28;20000;-74
2023/08/09 06:03:39;;;;;;;;;;;;;;;13.79;100.00;101457.09;5013053;28;19932;-74
2023/08/09 06:06:08;;;;;;;;;;;;;;;13.89;100.00;101463.47;5029489;28;19921;-74
2023/08/09 06:08:34;;;;;;;;;;;;;;;14.04;100.00;101477.53;5011736;28;20322;-74
2023/08/09 06:10:59;;;;;;;;;;;;;;;14.25;100.00;101466.81;5026159;28;19940;-75
2023/08/09 06:13:24;;;;;;;;;;;;;;;14.42;100.00;101469.91;5011788;28;19925;-74
2023/08/09 06:15:50;;;;;;;;;;;;;;;14.48;100.00;101472.09;5013178;28;19920;-74
2023/08/09 06:18:16;;;;;;;;;;;;;;;14.57;100.00;101472.31;5012567;28;20326;-74
2023/08/09 06:20:41;;;;;;;;;;;;;;;14.55;100.00;101473.31;5012490;28;19944;-74
2023/08/09 06:23:06;;;;;;;;;;;;;;;14.65;100.00;101475.22;5028223;28;20367;-74
2023/08/09 06:25:31;;;;;;;;;;;;;;;14.65;100.00;101475.22;5029043;28;19959;-75
2023/08/09 06:27:57;;;;;;;;;;;;;;;14.59;100.00;101475.72;5011583;28;19917;-74
2023/08/09 06:30:22;;;;;;;;;;;;;;;14.39;100.00;101453.97;5030278;28;19921;-74
2023/08/09 06:32:48;;;;;;;;;;;;;;;14.73;100.00;101480.00;5009601;28;19925;-74
2023/08/09 06:35:14;;;;;;;;;;;;;;;14.91;100.00;101481.13;5007805;28;19925;-74
2023/08/09 06:37:39;;;;;;;;;;;;;;;15.05;100.00;101484.47;5013113;28;20019;-74
2023/08/09 06:40:07;;;;;;;;;;;;;;;15.26;100.00;101488.00;5025295;28;20431;-74
2023/08/09 06:42:32;;;;;;;;;;;;;;;15.40;100.00;101494.91;5011268;28;19936;-74
2023/08/09 06:44:57;;;;;;;;;;;;;;;15.58;100.00;101502.41;5027876;28;20374;-74
2023/08/09 06:47:23;;;;;;;;;;;;;;;15.66;100.00;101502.56;5011665;28;20275;-74
2023/08/09 06:49:48;;;;;;;;;;;;;;;15.78;100.00;101502.47;5027213;28;20180;-74
2023/08/09 06:52:13;;;;;;;;;;;;;;;15.89;100.00;101508.66;5012379;28;20299;-74
2023/08/09 06:54:38;;;;;;;;;;;;;;;16.05;100.00;101512.69;5012108;28;20441;-74
2023/08/09 06:57:03;;;;;;;;;;;;;;;16.13;100.00;101501.19;5027779;28;19952;-74
2023/08/09 06:59:29;;;;;;;;;;;;;;;16.23;100.00;101503.91;5027431;28;20174;-73
2023/08/09 07:01:54;;;;;;;;;;;;;;;16.36;100.00;101509.88;5008408;28;19974;-73
2023/08/09 07:04:19;;;;;;;;;;;;;;;16.38;100.00;101516.03;5013606;28;19924;-75
2023/08/09 07:06:45;;;;;;;;;;;;;;;16.57;100.00;101515.19;5026975;28;19928;-74
2023/08/09 07:09:11;;;;;;;;;;;;;;;16.59;100.00;101515.03;5006004;28;20407;-74
2023/08/09 07:11:36;;;;;;;;;;;;;;;16.62;100.00;101521.03;5008454;28;19913;-74
2023/08/09 07:14:01;;;;;;;;;;;;;;;16.74;100.00;101523.59;5024938;28;20739;-73
2023/08/09 07:16:27;;;;;;;;;;;;;;;16.84;100.00;101521.72;5027095;28;20566;-75
2023/08/09 07:18:52;;;;;;;;;;;;;;;16.89;100.00;101511.31;5029131;28;20403;-74
2023/08/09 07:21:17;;;;;;;;;;;;;;;16.97;100.00;101526.03;5011442;28;20240;-74
2023/08/09 07:23:42;;;;;;;;;;;;;;;16.86;100.00;101508.88;5023037;28;20153;-74
2023/08/09 07:26:08;;;;;;;;;;;;;;;16.68;100.00;101514.19;5009886;28;20287;-74
2023/08/09 07:28:33;;;;;;;;;;;;;;;16.91;100.00;101516.56;5030230;28;20381;-75
2023/08/09 07:30:58;;;;;;;;;;;;;;;17.20;100.00;101522.00;5028418;28;20329;-74
2023/08/09 07:33:23;;;;;;;;;;;;;;;17.27;100.00;101521.38;5027070;28;20397;-74
2023/08/09 07:35:48;;;;;;;;;;;;;;;17.42;100.00;101527.22;5015246;28;20365;-74
2023/08/09 07:38:14;;;;;;;;;;;;;;;17.56;100.00;101521.31;5026489;28;19955;-74
2023/08/09 07:40:39;;;;;;;;;;;;;;;17.80;100.00;101533.50;5016990;28;20028;-73
2023/08/09 07:43:05;;;;;;;;;;;;;;;17.93;100.00;101525.00;5012526;28;19925;-73
2023/08/09 07:45:30;;;;;;;;;;;;;;;18.18;100.00;101530.75;5030763;28;20012;-72
2023/08/09 07:47:55;;;;;;;;;;;;;;;18.10;100.00;101526.91;4997496;28;19961;-73
2023/08/09 07:50:20;;;;;;;;;;;;;;;18.16;100.00;101530.03;5031250;28;20004;-73
2023/08/09 07:52:47;;;;;;;;;;;;;;;18.08;100.00;101537.09;4997572;28;19925;-73
2023/08/09 07:55:12;;;;;;;;;;;;;;;18.09;100.00;101538.78;5029347;28;20388;-73
2023/08/09 07:57:37;;;;;;;;;;;;;;;18.13;100.00;101542.91;5010508;28;19929;-74
2023/08/09 08:00:17;;;;;;;;;;;;;;;18.17;100.00;101548.91;5029704;28;20363;-74
2023/08/09 08:02:43;;;;;;;;;;;;;;;18.24;100.00;101554.59;5029347;28;19960;-73
2023/08/09 08:05:11;;;;;;;;;;;;;;;18.37;100.00;101548.78;5014270;28;20015;-74
2023/08/09 08:07:36;;;;;;;;;;;;;;;18.46;100.00;101544.28;5017746;28;20410;-72
2023/08/09 08:10:02;;;;;;;;;;;;;;;18.35;100.00;101553.53;5028044;28;19922;-72
2023/08/09 08:12:28;;;;;;;;;;;;;;;18.09;100.00;101551.53;5027638;28;19965;-73
2023/08/09 08:14:54;;;;;;;;;;;;;;;18.08;100.00;101555.25;5024847;28;19968;-72
2023/08/09 08:17:19;;;;;;;;;;;;;;;18.41;100.00;101556.47;5011962;28;19925;-72
2023/08/09 08:19:44;;;;;;;;;;;;;;;18.54;100.00;101541.66;4999134;28;20046;-73
2023/08/09 08:22:09;;;;;;;;;;;;;;;18.47;100.00;101543.28;5014587;28;19983;-73
2023/08/09 08:24:35;;;;;;;;;;;;;;;18.36;100.00;101555.25;5008284;28;20286;-73
2023/08/09 08:27:00;;;;;;;;;;;;;;;18.30;100.00;101556.69;5028420;28;20428;-72
2023/08/09 08:29:25;;;;;;;;;;;;;;;18.49;100.00;101557.59;5030168;28;20834;-73
2023/08/09 08:31:54;;;;;;;;;;;;;;;18.71;100.00;101559.84;5026054;28;19928;-73
2023/08/09 08:34:21;;;;;;;;;;;;;;;18.53;100.00;101558.97;5029339;28;20008;-73
2023/08/09 08:36:47;;;;;;;;;;;;;;;18.88;100.00;101563.56;5029648;28;19932;-73
2023/08/09 08:39:14;;;;;;;;;;;;;;;19.14;100.00;101560.06;5014105;28;20019;-73
2023/08/09 08:41:41;;;;;;;;;;;;;;;18.91;100.00;101564.25;5011965;28;19925;-72
2023/08/09 08:44:07;;;;;;;;;;;;;;;19.16;100.00;101554.44;5029377;28;20239;-72
2023/08/09 08:46:32;;;;;;;;;;;;;;;19.39;100.00;101560.22;5012956;28;19917;-73
2023/08/09 08:48:58;;;;;;;;;;;;;;;19.78;100.00;101559.75;5029013;28;20307;-72
2023/08/09 08:51:23;;;;;;;;;;;;;;;19.52;100.00;101561.66;5027821;28;20362;-76
2023/08/09 08:53:48;;;;;;;;;;;;;;;19.85;100.00;101572.72;5030393;28;20450;-72
2023/08/09 08:56:14;;;;;;;;;;;;;;;20.01;100.00;101581.00;5011119;28;20415;-71
2023/08/09 08:58:39;;;;;;;;;;;;;;;19.96;100.00;101580.66;5027276;28;20431;-72
2023/08/09 09:01:05;;;;;;;;;;;;;;;19.81;100.00;101577.66;5010339;28;19913;-72
2023/08/09 09:03:30;;;;;;;;;;;;;;;19.99;100.00;101582.19;4996347;28;19936;-72
2023/08/09 09:05:55;;;;;;;;;;;;;;;19.96;100.00;101580.66;5010193;28;19943;-72
2023/08/09 09:08:20;;;;;;;;;;;;;;;19.96;100.00;101585.22;4994958;28;19920;-74
2023/08/09 09:10:46;;;;;;;;;;;;;;;20.00;100.00;101583.91;5025780;28;20650;-72
2023/08/09 09:13:27;;;;;;;;;;;;;;;20.21;100.00;101581.59;5011431;28;19929;-71
2023/08/09 09:15:54;;;;;;;;;;;;;;;20.62;100.00;101585.44;5013371;28;20335;-72
2023/08/09 09:18:19;;;;;;;;;;;;;;;19.59;100.00;101581.78;5011113;28;20318;-72
2023/08/09 09:20:45;;;;;;;;;;;;;;;19.42;100.00;101586.25;4995409;28;19921;-71
2023/08/09 09:23:10;;;;;;;;;;;;;;;19.23;100.00;101577.28;5013345;28;19925;-72
2023/08/09 09:25:36;;;;;;;;;;;;;;;19.45;100.00;101580.50;5028384;28;19956;-73
2023/08/09 09:28:01;;;;;;;;;;;;;;;19.78;100.00;101581.53;5028469;28;19944;-72
2023/08/09 09:30:31;;;;;;;;;;;;;;;20.16;100.00;101594.00;5011513;28;20018;-72
2023/08/09 09:32:58;;;;;;;;;;;;;;;20.35;100.00;101593.72;5029739;28;19928;-72
2023/08/09 09:35:27;;;;;;;;;;;;;;;20.51;100.00;101592.91;5011333;28;20279;-71
2023/08/09 09:37:53;;;;;;;;;;;;;;;20.48;100.00;101597.88;5012417;28;19921;-73
2023/08/09 09:40:34;;;;;;;;;;;;;;;20.83;100.00;101591.31;4991139;28;19929;-72
2023/08/09 09:43:00;;;;;;;;;;;;;;;20.97;100.00;101591.63;5009167;28;19932;-71
2023/08/09 09:45:26;;;;;;;;;;;;;;;20.94;100.00;101591.97;5030157;28;19921;-72
2023/08/09 09:47:52;;;;;;;;;;;;;;;20.87;100.00;101590.97;5028132;28;19917;-72
2023/08/09 09:50:19;;;;;;;;;;;;;;;20.45;100.00;101596.31;5029507;28;19995;-73
2023/08/09 09:52:45;;;;;;;;;;;;;;;20.33;100.00;101590.31;5010511;28;19953;-73
2023/08/09 09:55:10;;;;;;;;;;;;;;;19.61;100.00;101580.59;5010064;28;20422;-73
2023/08/09 09:57:35;;;;;;;;;;;;;;;20.36;100.00;101598.16;5010359;28;19921;-71
2023/08/09 10:00:05;;;;;;;;;;;;;;;20.55;100.00;101589.84;5023189;28;20371;-71
2023/08/09 10:02:33;;;;;;;;;;;;;;;20.84;100.00;101578.50;4994507;28;19932;-71
2023/08/09 10:04:59;;;;;;;;;;;;;;;20.73;100.00;101593.28;5026020;28;20621;-73
2023/08/09 10:07:24;;;;;;;;;;;;;;;21.00;100.00;101582.28;5012386;28;20015;-73
2023/08/09 10:09:50;;;;;;;;;;;;;;;20.80;100.00;101578.00;5009159;28;19920;-75
2023/08/09 10:12:15;;;;;;;;;;;;;;;20.09;100.00;101585.66;5012911;28;20314;-71
2023/08/09 10:14:41;;;;;;;;;;;;;;;20.34;100.00;101586.56;5008506;28;19996;-75
2023/08/09 10:17:06;;;;;;;;;;;;;;;20.61;100.00;101589.19;5009564;28;19985;-72
2023/08/09 10:19:32;;;;;;;;;;;;;;;20.43;100.00;101583.88;5026899;28;20012;-71
2023/08/09 10:22:00;;;;;;;;;;;;;;;20.33;100.00;101584.03;5029572;28;20395;-72
2023/08/09 10:24:26;;;;;;;;;;;;;;;20.66;100.00;101587.66;5026359;28;20036;-71
2023/08/09 10:26:53;;;;;;;;;;;;;;;21.04;100.00;101591.81;4995259;28;20268;-72
2023/08/09 10:29:20;;;;;;;;;;;;;;;21.25;100.00;101588.56;5029780;28;19921;-71
2023/08/09 10:31:50;;;;;;;;;;;;;;;21.45;100.00;101599.97;5026220;28;20259;-72
2023/08/09 10:34:16;;;;;;;;;;;;;;;21.13;100.00;101601.69;5012605;28;19948;-74
2023/08/09 10:36:41;;;;;;;;;;;;;;;21.54;100.00;101598.06;5011258;28;19921;-72
2023/08/09 10:39:11;;;;;;;;;;;;;;;21.55;100.00;101602.50;5024501;28;20280;-72
2023/08/09 10:41:36;;;;;;;;;;;;;;;21.18;100.00;101604.78;5010318;28;19947;-72
2023/08/09 10:44:03;;;;;;;;;;;;;;;21.07;100.00;101605.09;5026862;28;20472;-71
2023/08/09 10:46:31;;;;;;;;;;;;;;;20.95;100.00;101599.13;5026429;28;20615;-71
2023/08/09 10:49:00;;;;;;;;;;;;;;;20.48;100.00;101587.78;5027504;28;20272;-73
2023/08/09 10:51:25;;;;;;;;;;;;;;;20.86;100.00;101591.97;4996415;28;20071;-74
2023/08/09 10:53:57;;;;;;;;;;;;;;;20.63;100.00;101598.91;5012791;28;20047;-77
2023/08/09 10:56:29;;;;;;;;;;;;;;;20.43;100.00;101592.88;5014044;28;20493;-74
2023/08/09 10:58:54;;;;;;;;;;;;;;;20.16;100.00;101596.75;5013303;28;19925;-77
2023/08/09 11:01:19;;;;;;;;;;;;;;;20.20;100.00;101604.41;5013274;28;19917;-77
2023/08/09 11:03:45;;;;;;;;;;;;;;;20.77;100.00;101602.03;5029027;28;19963;-72
2023/08/09 11:06:10;;;;;;;;;;;;;;;20.72;100.00;101601.66;5013695;28;19921;-76
2023/08/09 11:08:35;;;;;;;;;;;;;;;20.77;100.00;101605.63;4997688;28;19929;-74
2023/08/09 11:11:00;;;;;;;;;;;;;;;20.71;100.00;101606.25;5029127;28;19921;-74
2023/08/09 11:13:26;;;;;;;;;;;;;;;21.39;100.00;101611.59;5027840;28;19963;-71
2023/08/09 11:15:51;;;;;;;;;;;;;;;21.52;100.00;101605.59;4999385;28;19983;-72
2023/08/09 11:18:17;;;;;;;;;;;;;;;21.50;100.00;101600.31;5016270;28;20342;-77
2023/08/09 11:20:42;;;;;;;;;;;;;;;21.41;100.00;101599.47;5015896;28;19921;-83
2023/08/09 11:23:08;;;;;;;;;;;;;;;22.57;100.00;101607.28;5017504;28;20291;-74
2023/08/09 11:25:33;;;;;;;;;;;;;;;23.87;87.64;101595.53;4995450;28;20393;-72
2023/08/09 11:28:00;;;;;;;;;;;;;;;23.71;77.26;101599.31;5015502;28;20367;-78
2023/08/09 11:30:26;;;;;;;;;;;;;;;23.33;77.80;101598.34;5030916;28;20001;-73
2023/08/09 11:32:58;;;;;;;;;;;;;;;23.60;82.58;101589.66;5014612;28;20334;-72
2023/08/09 11:35:30;;;;;;;;;;;;;;;24.04;78.97;101593.47;5030112;28;19921;-77
2023/08/09 11:37:55;;;;;;;;;;;;;;;24.19;81.21;101594.31;5017458;28;19971;-74
2023/08/09 11:40:21;;;;;;;;;;;;;;;24.15;81.19;101598.47;5028590;28;19968;-76
2023/08/09 11:42:47;;;;;;;;;;;;;;;24.96;80.87;101591.97;5014686;28;19921;-71
2023/08/09 11:45:12;;;;;;;;;;;;;;;24.69;80.12;101599.09;5010259;28;20002;-74
2023/08/09 11:47:37;;;;;;;;;;;;;;;24.48;76.27;101597.16;5012853;28;20024;-71
2023/08/09 11:50:22;;;;;;;;;;;;;;;24.06;81.51;101603.22;5010874;28;19917;-73
2023/08/09 11:52:50;;;;;;;;;;;;;;;22.75;82.66;101615.22;5014136;28;20003;-72
2023/08/09 11:55:15;;;;;;;;;;;;;;;21.75;91.10;101613.94;5027626;28;19921;-75
2023/08/09 11:57:40;;;;;;;;;;;;;;;21.44;93.27;101622.84;5032597;28;19923;-73
2023/08/09 12:00:09;;;;;;;;;;;;;;;21.49;89.96;101622.31;5026846;28;19916;-72
2023/08/09 12:02:36;;;;;;;;;;;;;;;21.47;93.42;101625.25;5030154;28;20401;-72
2023/08/09 12:05:07;;;;;;;;;;;;;;;22.33;99.22;101620.03;5030145;28;19920;-76
2023/08/09 12:07:32;;;;;;;;;;;;;;;23.92;81.67;101612.28;5009123;28;19964;-74
2023/08/09 12:10:02;;;;;;;;;;;;;;;23.74;79.47;101616.25;5028437;28;20008;-75
2023/08/09 12:12:35;;;;;;;;;;;;;;;24.36;84.24;101621.53;5029530;28;20028;-74
2023/08/09 12:15:00;;;;;;;;;;;;;;;24.64;74.71;101621.63;5028781;28;19971;-75
2023/08/09 12:17:26;;;;;;;;;;;;;;;25.39;72.16;101623.22;5031915;28;19925;-72
2023/08/09 12:19:53;;;;;;;;;;;;;;;26.55;68.57;101632.78;5010383;28;19925;-74
2023/08/09 12:22:18;;;;;;;;;;;;;;;26.91;61.99;101637.13;5013399;28;20019;-74